createdAt,value
2022-12-26T00:01:27.221Z,3.31
2022-12-26T00:04:51.424Z,3.33
2022-12-26T00:07:41.174Z,3.34
2022-12-26T00:10:47.151Z,3.39
2022-12-26T00:13:53.598Z,3.41
2022-12-26T00:17:01.072Z,3.43
2022-12-26T00:20:07.403Z,3.40
2022-12-26T00:23:15.531Z,3.33
2022-12-26T00:26:24.123Z,3.25
2022-12-26T00:29:29.759Z,3.15
2022-12-26T00:32:35.460Z,3.06
2022-12-26T00:35:41.203Z,3.06
2022-12-26T00:38:48.601Z,3.05
2022-12-26T00:41:54.440Z,3.01
2022-12-26T00:45:00.479Z,3.00
2022-12-26T00:48:08.337Z,2.97
2022-12-26T00:51:13.580Z,2.92
2022-12-26T00:54:19.903Z,2.87
2022-12-26T00:57:26.483Z,2.83
2022-12-26T01:00:33.669Z,2.80
2022-12-26T01:03:41.086Z,2.78
2022-12-26T01:06:47.545Z,2.82
2022-12-26T01:09:52.841Z,2.85
2022-12-26T01:12:59.035Z,2.84
2022-12-26T01:16:06.388Z,2.83
2022-12-26T01:19:12.965Z,2.83
2022-12-26T01:22:19.415Z,2.85
2022-12-26T01:25:28.204Z,2.86
2022-12-26T01:28:35.041Z,2.88
2022-12-26T01:31:41.281Z,2.87
2022-12-26T01:34:48.707Z,2.90
2022-12-26T01:37:55.193Z,2.93
2022-12-26T01:41:03.612Z,2.93
2022-12-26T01:44:16.879Z,2.98
2022-12-26T01:47:23.019Z,3.00
2022-12-26T01:50:43.343Z,3.00
2022-12-26T01:54:41.082Z,2.92
2022-12-26T01:57:08.498Z,2.92
2022-12-26T02:00:15.445Z,2.93
2022-12-26T02:03:25.375Z,2.98
2022-12-26T02:06:30.741Z,2.96
2022-12-26T02:09:36.861Z,2.98
2022-12-26T02:12:47.961Z,2.97
2022-12-26T02:19:07.284Z,3.06
2022-12-26T02:22:42.717Z,3.03
2022-12-26T02:26:27.925Z,3.02
2022-12-26T02:29:45.409Z,2.98
2022-12-26T02:33:17.687Z,2.96
2022-12-26T02:37:14.855Z,2.98
2022-12-26T02:40:36.771Z,3.04
2022-12-26T02:43:55.625Z,3.05
2022-12-26T02:47:11.434Z,3.01
2022-12-26T02:50:48.154Z,2.99
2022-12-26T02:54:39.122Z,3.02
2022-12-26T02:58:21.107Z,2.98
2022-12-26T03:02:01.757Z,3.05
2022-12-26T03:05:25.525Z,3.08
2022-12-26T03:08:54.821Z,3.12
2022-12-26T03:12:21.344Z,3.10
2022-12-26T03:15:31.115Z,3.08
2022-12-26T03:18:57.682Z,3.07
2022-12-26T03:21:56.449Z,3.12
2022-12-26T03:25:20.415Z,3.11
2022-12-26T03:28:26.804Z,3.13
2022-12-26T03:31:33.579Z,3.16
2022-12-26T03:34:39.328Z,3.21
2022-12-26T03:37:50.532Z,3.21
2022-12-26T03:41:30.517Z,3.23
2022-12-26T03:45:01.879Z,3.22
2022-12-26T03:48:36.452Z,3.17
2022-12-26T03:52:04.650Z,3.09
2022-12-26T03:55:39.745Z,3.05
2022-12-26T03:59:14.164Z,3.04
2022-12-26T04:02:39.717Z,3.01
2022-12-26T04:06:08.654Z,2.97
2022-12-26T04:09:40.895Z,2.89
2022-12-26T04:13:04.853Z,2.78
2022-12-26T04:16:44.554Z,2.67
2022-12-26T04:19:58.504Z,2.58
2022-12-26T04:23:44.176Z,2.52
2022-12-26T04:27:17.256Z,2.48
2022-12-26T04:30:44.197Z,2.44
2022-12-26T04:34:32.758Z,2.39
2022-12-26T04:37:58.078Z,2.37
2022-12-26T04:41:25.478Z,2.38
2022-12-26T04:44:32.391Z,2.39
2022-12-26T04:47:39.227Z,2.42
2022-12-26T04:50:45.420Z,2.44
2022-12-26T04:53:50.001Z,2.44
2022-12-26T04:56:56.024Z,2.45
2022-12-26T05:00:01.650Z,2.51
2022-12-26T05:03:26.204Z,2.51
2022-12-26T05:06:50.919Z,2.52
2022-12-26T05:09:58.830Z,2.55
2022-12-26T05:13:04.230Z,2.61
2022-12-26T05:16:27.568Z,2.67
2022-12-26T05:19:50.528Z,2.70
2022-12-26T05:23:16.874Z,2.75
2022-12-26T05:26:52.870Z,2.76
2022-12-26T05:29:58.249Z,2.77
2022-12-26T05:33:21.265Z,2.77
2022-12-26T05:36:25.015Z,2.77
2022-12-26T05:39:31.810Z,2.75
2022-12-26T05:42:38.353Z,2.74
2022-12-26T05:45:44.837Z,2.75
2022-12-26T05:48:50.495Z,2.70
2022-12-26T05:51:56.306Z,2.64
2022-12-26T05:55:04.789Z,2.60
2022-12-26T05:58:14.707Z,2.58
2022-12-26T06:01:23.404Z,2.57
2022-12-26T06:04:29.501Z,2.63
2022-12-26T06:07:35.427Z,2.68
2022-12-26T06:10:41.882Z,2.69
2022-12-26T06:13:46.740Z,2.74
2022-12-26T06:16:52.284Z,2.73
2022-12-26T06:20:00.402Z,2.70
2022-12-26T06:23:08.637Z,2.68
2022-12-26T06:26:22.895Z,2.70
2022-12-26T06:29:28.647Z,2.75
2022-12-26T06:32:35.458Z,2.82
2022-12-26T06:35:42.374Z,2.87
2022-12-26T06:38:54.232Z,2.86
2022-12-26T06:42:04.846Z,2.83
2022-12-26T06:45:11.591Z,2.82
2022-12-26T06:48:19.621Z,2.83
2022-12-26T06:51:31.683Z,2.85
2022-12-26T06:54:38.839Z,2.91
2022-12-26T06:57:43.553Z,2.89
2022-12-26T07:00:50.745Z,2.89
2022-12-26T07:03:58.743Z,2.90
2022-12-26T07:07:06.215Z,2.85
2022-12-26T07:10:11.562Z,2.87
2022-12-26T07:13:17.495Z,2.83
2022-12-26T07:16:28.844Z,2.76
2022-12-26T07:19:34.667Z,2.75
2022-12-26T07:22:39.663Z,2.82
2022-12-26T07:25:46.528Z,2.87
2022-12-26T07:28:53.019Z,2.87
2022-12-26T07:31:59.609Z,2.91
2022-12-26T07:35:05.422Z,2.96
2022-12-26T07:38:10.717Z,3.00
2022-12-26T07:41:34.925Z,3.05
2022-12-26T07:44:46.337Z,3.09
2022-12-26T07:47:53.798Z,3.11
2022-12-26T07:51:00.550Z,3.12
2022-12-26T07:54:11.309Z,3.15
2022-12-26T08:00:28.940Z,3.19
2022-12-26T08:03:35.691Z,3.15
2022-12-26T08:06:49.742Z,3.21
2022-12-26T08:10:14.721Z,3.25
2022-12-26T08:13:30.339Z,3.24
2022-12-26T08:16:37.853Z,3.28
2022-12-26T08:19:43.801Z,3.31
2022-12-26T08:22:48.951Z,3.29
2022-12-26T08:26:05.233Z,3.26
2022-12-26T08:29:16.460Z,3.31
2022-12-26T08:32:23.216Z,3.35
2022-12-26T08:35:32.121Z,3.34
2022-12-26T08:38:37.903Z,3.33
2022-12-26T08:41:44.040Z,3.30
2022-12-26T08:44:49.854Z,3.34
2022-12-26T08:47:56.277Z,3.36
2022-12-26T08:51:07.305Z,3.42
2022-12-26T08:54:15.879Z,3.47
2022-12-26T08:57:22.836Z,3.54
2022-12-26T09:00:32.908Z,3.56
2022-12-26T09:03:41.479Z,3.60
2022-12-26T09:06:49.825Z,3.60
2022-12-26T09:09:56.016Z,3.64
2022-12-26T09:13:03.165Z,3.70
2022-12-26T09:16:08.133Z,3.75
2022-12-26T09:19:15.235Z,3.82
2022-12-26T09:22:40.696Z,3.84
2022-12-26T09:25:47.242Z,3.82
2022-12-26T09:28:53.591Z,3.79
2022-12-26T09:32:00.119Z,3.72
2022-12-26T09:35:09.138Z,3.68
2022-12-26T09:38:16.752Z,3.66
2022-12-26T09:41:38.258Z,3.65
2022-12-26T09:44:54.330Z,3.62
2022-12-26T09:48:11.729Z,3.64
2022-12-26T09:51:17.285Z,3.62
2022-12-26T09:54:25.459Z,3.57
2022-12-26T09:57:40.200Z,3.54
2022-12-26T10:01:07.891Z,3.53
2022-12-26T10:04:15.481Z,3.53
2022-12-26T10:07:55.645Z,3.52
2022-12-26T10:11:16.475Z,3.52
2022-12-26T10:14:56.158Z,3.53
2022-12-26T10:18:28.604Z,3.60
2022-12-26T10:22:05.485Z,3.60
2022-12-26T10:25:13.023Z,3.63
2022-12-26T10:28:19.384Z,3.53
2022-12-26T10:31:45.909Z,3.52
2022-12-26T10:34:56.805Z,3.50
2022-12-26T10:38:02.351Z,3.48
2022-12-26T10:41:08.434Z,3.44
2022-12-26T10:44:13.877Z,3.40
2022-12-26T10:47:30.281Z,3.35
2022-12-26T10:50:42.027Z,3.38
2022-12-26T10:53:47.958Z,3.37
2022-12-26T10:56:53.133Z,3.35
2022-12-26T11:00:10.580Z,3.29
2022-12-26T11:03:29.057Z,3.29
2022-12-26T11:06:36.381Z,3.29
2022-12-26T11:09:57.015Z,3.31
2022-12-26T11:13:16.179Z,3.30
2022-12-26T11:16:22.625Z,3.30
2022-12-26T11:19:52.190Z,3.38
2022-12-26T11:22:59.865Z,3.40
2022-12-26T11:26:10.809Z,3.43
2022-12-26T11:29:48.480Z,3.42
2022-12-26T11:33:02.339Z,3.43
2022-12-26T11:36:20.489Z,3.42
2022-12-26T11:39:41.972Z,3.43
2022-12-26T11:42:47.980Z,3.44
2022-12-26T11:45:57.610Z,3.44
2022-12-26T11:49:06.347Z,3.44
2022-12-26T11:52:12.089Z,3.48
2022-12-26T11:55:19.021Z,3.50
2022-12-26T11:58:36.764Z,3.56
2022-12-26T12:01:42.024Z,3.59
2022-12-26T12:04:48.515Z,3.61
2022-12-26T12:08:16.296Z,3.62
2022-12-26T12:11:35.706Z,3.57
2022-12-26T12:14:54.361Z,3.54
2022-12-26T12:18:35.957Z,3.56
2022-12-26T12:22:10.203Z,3.63
2022-12-26T12:25:39.726Z,3.69
2022-12-26T12:28:52.630Z,3.66
2022-12-26T12:32:11.918Z,3.67
2022-12-26T12:35:46.771Z,3.59
2022-12-26T12:39:54.100Z,3.49
2022-12-26T12:43:23.939Z,3.40
2022-12-26T12:47:07.792Z,3.37
2022-12-26T12:50:32.907Z,3.38
2022-12-26T12:54:17.810Z,3.32
2022-12-26T12:57:47.021Z,3.32
2022-12-26T13:01:09.225Z,3.35
2022-12-26T13:04:38.839Z,3.29
2022-12-26T13:07:51.869Z,3.29
2022-12-26T13:11:09.924Z,3.31
2022-12-26T13:14:42.676Z,3.36
2022-12-26T13:18:27.267Z,3.39
2022-12-26T13:21:33.217Z,3.44
2022-12-26T13:24:59.857Z,3.45
2022-12-26T13:28:10.908Z,3.46
2022-12-26T13:31:25.738Z,3.43
2022-12-26T13:34:36.044Z,3.39
2022-12-26T13:37:59.116Z,3.33
2022-12-26T13:41:34.550Z,3.31
2022-12-26T13:44:41.841Z,3.27
2022-12-26T13:47:51.179Z,3.26
2022-12-26T13:51:11.241Z,3.24
2022-12-26T13:54:21.919Z,3.22
2022-12-26T13:57:50.004Z,3.18
2022-12-26T14:01:02.015Z,3.14
2022-12-26T14:04:32.469Z,3.12
2022-12-26T14:08:16.518Z,3.12
2022-12-26T14:11:50.810Z,3.18
2022-12-26T14:15:17.704Z,3.23
2022-12-26T14:18:36.771Z,3.25
2022-12-26T14:21:41.535Z,3.23
2022-12-26T14:29:00.801Z,3.25
2022-12-26T14:32:39.335Z,3.19
2022-12-26T14:35:57.065Z,3.21
2022-12-26T14:39:17.983Z,3.22
2022-12-26T14:42:58.774Z,3.23
2022-12-26T14:46:06.174Z,3.27
2022-12-26T14:49:41.413Z,3.28
2022-12-26T14:52:54.570Z,3.28
2022-12-26T14:56:24.985Z,3.30
2022-12-26T14:59:45.765Z,3.34
2022-12-26T15:02:51.631Z,3.32
2022-12-26T15:06:00.160Z,3.23
2022-12-26T15:09:52.741Z,3.24
2022-12-26T15:13:29.186Z,3.28
2022-12-26T15:16:44.528Z,3.29
2022-12-26T15:20:17.515Z,3.33
2022-12-26T15:23:50.876Z,3.35
2022-12-26T15:27:35.830Z,3.37
2022-12-26T15:31:13.416Z,3.39
2022-12-26T15:34:55.289Z,3.37
2022-12-26T15:38:24.465Z,3.35
2022-12-26T15:41:41.091Z,3.34
2022-12-26T15:45:04.816Z,3.26
2022-12-26T15:48:40.688Z,3.25
2022-12-26T15:52:16.267Z,3.28
2022-12-26T15:55:42.729Z,3.31
2022-12-26T15:59:15.324Z,3.25
2022-12-26T16:02:44.533Z,3.19
2022-12-26T16:06:14.811Z,3.17
2022-12-26T16:09:50.789Z,3.17
2022-12-26T16:12:58.561Z,3.19
2022-12-26T16:16:08.628Z,3.21
2022-12-26T16:19:34.891Z,3.21
2022-12-26T16:22:56.801Z,3.22
2022-12-26T16:26:03.732Z,3.25
2022-12-26T16:29:10.721Z,3.30
2022-12-26T16:32:20.795Z,3.35
2022-12-26T16:35:36.101Z,3.41
2022-12-26T16:38:43.816Z,3.43
2022-12-26T16:41:49.541Z,3.46
2022-12-26T16:44:55.991Z,3.48
2022-12-26T16:48:02.138Z,3.51
2022-12-26T16:51:20.849Z,3.51
2022-12-26T16:54:32.276Z,3.54
2022-12-26T16:57:41.146Z,3.56
2022-12-26T17:00:46.081Z,3.55
2022-12-26T17:04:16.261Z,3.51
2022-12-26T17:07:23.355Z,3.52
2022-12-26T17:10:44.342Z,3.54
2022-12-26T17:13:51.764Z,3.55
2022-12-26T17:17:02.385Z,3.54
2022-12-26T17:20:12.420Z,3.55
2022-12-26T17:23:43.216Z,3.54
2022-12-26T17:26:48.230Z,3.50
2022-12-26T17:30:15.902Z,3.50
2022-12-26T17:33:41.422Z,3.52
2022-12-26T17:37:17.951Z,3.52
2022-12-26T17:39:55.792Z,3.52
2022-12-26T17:43:06.253Z,3.52
2022-12-26T17:46:12.509Z,3.46
2022-12-26T17:49:18.853Z,3.40
2022-12-26T17:52:29.469Z,3.35
2022-12-26T17:55:38.504Z,3.33
2022-12-26T17:58:43.874Z,3.31
2022-12-26T18:01:49.696Z,3.32
2022-12-26T18:04:58.508Z,3.32
2022-12-26T18:08:05.722Z,3.34
2022-12-26T18:11:14.465Z,3.36
2022-12-26T18:14:24.498Z,3.37
2022-12-26T18:17:32.180Z,3.37
2022-12-26T18:20:42.142Z,3.32
2022-12-26T18:23:48.262Z,3.34
2022-12-26T18:26:54.238Z,3.28
2022-12-26T18:30:01.696Z,3.19
2022-12-26T18:33:08.639Z,3.13
2022-12-26T18:36:16.624Z,3.09
2022-12-26T18:39:21.675Z,3.03
2022-12-26T18:42:29.181Z,3.00
2022-12-26T18:45:35.656Z,2.94
2022-12-26T18:48:44.673Z,2.89
2022-12-26T18:51:50.123Z,2.85
2022-12-26T18:54:57.909Z,2.83
2022-12-26T18:58:03.859Z,2.86
2022-12-26T19:01:10.174Z,2.90
2022-12-26T19:04:15.930Z,2.96
2022-12-26T19:07:22.612Z,3.00
2022-12-26T19:10:28.931Z,3.06
2022-12-26T19:13:35.399Z,3.13
2022-12-26T19:16:41.345Z,3.17
2022-12-26T19:19:48.030Z,3.20
2022-12-26T19:22:55.155Z,3.23
2022-12-26T19:26:01.364Z,3.24
2022-12-26T19:29:09.721Z,3.25
2022-12-26T19:32:15.347Z,3.25
2022-12-26T19:35:22.064Z,3.26
2022-12-26T19:38:27.476Z,3.27
2022-12-26T19:41:33.115Z,3.28
2022-12-26T19:44:39.418Z,3.29
2022-12-26T19:47:46.410Z,3.27
2022-12-26T19:50:56.331Z,3.26
2022-12-26T19:54:02.268Z,3.26
2022-12-26T19:57:07.834Z,3.24
2022-12-26T20:00:14.266Z,3.18
2022-12-26T20:03:19.685Z,3.14
2022-12-26T20:06:31.331Z,3.12
2022-12-26T20:09:36.725Z,3.12
2022-12-26T20:12:42.901Z,3.12
2022-12-26T20:15:49.191Z,3.12
2022-12-26T20:18:56.854Z,3.14
2022-12-26T20:22:03.748Z,3.15
2022-12-26T20:25:09.752Z,3.14
2022-12-26T20:28:15.661Z,3.15
2022-12-26T20:31:25.123Z,3.14
2022-12-26T20:34:31.741Z,3.11
2022-12-26T20:37:38.540Z,3.09
2022-12-26T20:40:49.754Z,3.08
2022-12-26T20:43:51.164Z,3.06
2022-12-26T20:46:58.875Z,3.03
2022-12-26T20:50:05.275Z,3.01
2022-12-26T20:53:11.505Z,2.96
2022-12-26T20:56:20.621Z,2.88
2022-12-26T20:59:26.360Z,2.82
2022-12-26T21:02:32.378Z,2.73
2022-12-26T21:05:42.363Z,2.71
2022-12-26T21:08:48.813Z,2.69
2022-12-26T21:11:55.816Z,2.72
2022-12-26T21:15:03.403Z,2.72
2022-12-26T21:18:09.142Z,2.74
2022-12-26T21:21:23.919Z,2.72
2022-12-26T21:24:37.031Z,2.68
2022-12-26T21:27:43.106Z,2.65
2022-12-26T21:30:49.287Z,2.66
2022-12-26T21:33:54.287Z,2.67
2022-12-26T21:37:17.802Z,2.69
2022-12-26T21:40:24.654Z,2.68
2022-12-26T21:43:32.672Z,2.68
2022-12-26T21:46:39.038Z,2.69
2022-12-26T21:49:46.204Z,2.67
2022-12-26T21:52:53.259Z,2.68
2022-12-26T21:56:01.915Z,2.65
2022-12-26T21:59:26.016Z,2.64
2022-12-26T22:02:53.536Z,2.62
2022-12-26T22:06:03.674Z,2.62
2022-12-26T22:09:11.078Z,2.62
2022-12-26T22:12:34.607Z,2.59
2022-12-26T22:15:59.884Z,2.55
2022-12-26T22:19:06.467Z,2.50
2022-12-26T22:22:12.282Z,2.42
2022-12-26T22:25:18.284Z,2.36
2022-12-26T22:28:23.874Z,2.29
2022-12-26T22:31:43.457Z,2.21
2022-12-26T22:34:49.115Z,2.13
2022-12-26T22:37:54.731Z,2.07
2022-12-26T22:41:09.546Z,2.06
2022-12-26T22:44:15.574Z,2.06
2022-12-26T22:47:21.452Z,2.07
2022-12-26T22:50:34.676Z,2.09
2022-12-26T22:53:43.293Z,2.06
2022-12-26T22:56:50.885Z,2.08
2022-12-26T23:00:11.808Z,2.09
2022-12-26T23:03:04.174Z,2.10
2022-12-26T23:06:12.367Z,2.11
2022-12-26T23:09:20.949Z,2.13
2022-12-26T23:12:47.098Z,2.15
2022-12-26T23:16:14.153Z,2.16
2022-12-26T23:19:46.069Z,2.16
2022-12-26T23:22:53.681Z,2.16
2022-12-26T23:25:59.201Z,2.15
2022-12-26T23:29:26.416Z,2.13
2022-12-26T23:32:32.397Z,2.14
2022-12-26T23:35:41.495Z,2.14
2022-12-26T23:38:47.602Z,2.08
2022-12-26T23:41:53.965Z,2.03
2022-12-26T23:45:00.374Z,1.98
2022-12-26T23:48:06.443Z,1.96
2022-12-26T23:51:20.311Z,1.97
2022-12-26T23:54:25.464Z,2.02
2022-12-26T23:57:31.476Z,2.08
